Time;durP1;ratioP1;P1;durP2;ratioP2;P2;SDS_P1;SDS_P2;PMS_P1;PMS_P2;Temp;Humidity;BMP_temperature;BMP_pressure;BME280_temperature;BME280_humidity;BME280_pressure;Samples;Min_cycle;Max_cycle;Signal;HPM_P1;HPM_P2
2024/03/21 00:00:54;;;;;;;7.78;5.00;;;;;;;18.90;43.52;101628.13;5014901;28;20073;-62
2024/03/21 00:03:19;;;;;;;10.77;4.63;;;;;;;18.93;43.98;101632.34;4997016;28;20160;-62
2024/03/21 00:05:45;;;;;;;8.35;5.60;;;;;;;18.88;43.83;101622.00;5014943;28;20037;-62
2024/03/21 00:08:10;;;;;;;8.20;4.85;;;;;;;18.90;43.99;101628.13;4997304;28;20064;-62
2024/03/21 00:10:35;;;;;;;7.18;4.82;;;;;;;18.86;43.85;101634.03;4994745;28;20029;-62
2024/03/21 00:13:01;;;;;;;8.77;4.75;;;;;;;18.79;43.73;101635.72;4997230;28;20029;-61
2024/03/21 00:15:26;;;;;;;6.15;4.05;;;;;;;18.76;43.54;101636.88;4996900;28;20034;-62
2024/03/21 00:17:51;;;;;;;7.53;4.30;;;;;;;18.69;43.71;101641.25;4997100;28;20030;-62
2024/03/21 00:20:19;;;;;;;11.27;4.32;;;;;;;18.66;43.70;101638.88;4997482;28;20030;-62
2024/03/21 00:22:45;;;;;;;9.65;4.57;;;;;;;18.62;43.79;101637.47;5014536;28;20118;-62
2024/03/21 00:25:11;;;;;;;6.85;4.90;;;;;;;18.61;43.43;101641.22;4997071;28;20034;-62
2024/03/21 00:27:37;;;;;;;6.38;5.18;;;;;;;18.63;43.89;101641.03;4980460;28;20076;-62
2024/03/21 00:30:06;;;;;;;15.38;5.35;;;;;;;18.62;44.34;101642.06;5014455;28;20038;-62
2024/03/21 00:32:32;;;;;;;11.02;5.20;;;;;;;18.65;44.42;101645.28;4996642;28;20028;-62
2024/03/21 00:34:58;;;;;;;13.98;4.75;;;;;;;18.67;44.13;101651.44;4980486;28;20030;-62
2024/03/21 00:37:24;;;;;;;5.72;4.65;;;;;;;18.67;44.60;101656.88;4996704;28;20057;-62
2024/03/21 00:39:50;;;;;;;10.05;5.22;;;;;;;18.70;44.40;101656.53;4996958;28;20026;-62
2024/03/21 00:42:15;;;;;;;8.95;5.50;;;;;;;18.73;44.47;101661.66;4996624;28;20029;-62
2024/03/21 00:44:41;;;;;;;8.27;5.05;;;;;;;18.75;44.40;101659.63;4980216;28;20022;-62
2024/03/21 00:47:07;;;;;;;10.73;5.20;;;;;;;18.76;44.04;101668.63;5014063;28;20060;-62
2024/03/21 00:49:33;;;;;;;12.48;5.60;;;;;;;18.75;44.56;101667.75;4979928;28;20097;-62
2024/03/21 00:51:58;;;;;;;9.27;4.57;;;;;;;18.74;44.43;101663.34;4996433;28;20091;-62
2024/03/21 00:54:23;;;;;;;7.85;5.07;;;;;;;18.70;44.61;101667.41;5013841;28;20068;-62
2024/03/21 00:56:49;;;;;;;10.43;4.75;;;;;;;18.66;44.04;101670.56;5013608;28;20095;-62
2024/03/21 00:59:14;;;;;;;10.38;4.95;;;;;;;18.66;44.33;101673.28;4996460;28;20037;-62
2024/03/21 01:01:40;;;;;;;6.88;4.57;;;;;;;18.63;44.60;101673.63;4980641;28;20058;-61
2024/03/21 01:04:06;;;;;;;9.52;4.25;;;;;;;18.61;44.88;101679.22;4996699;28;20493;-62
2024/03/21 01:06:31;;;;;;;11.15;4.93;;;;;;;18.59;44.55;101678.53;4996742;28;20030;-62
2024/03/21 01:08:57;;;;;;;9.15;4.95;;;;;;;18.60;44.59;101688.34;4997057;28;20571;-62
2024/03/21 01:11:22;;;;;;;8.02;4.93;;;;;;;18.62;44.50;101696.34;5014159;28;20038;-62
2024/03/21 01:13:48;;;;;;;11.43;5.88;;;;;;;18.62;44.68;101690.94;4996619;28;20041;-62
2024/03/21 01:16:13;;;;;;;10.40;5.35;;;;;;;18.64;44.21;101695.19;4996400;28;20030;-61
2024/03/21 01:18:38;;;;;;;8.70;5.50;;;;;;;18.65;44.94;101688.72;5014040;28;20041;-62
2024/03/21 01:21:05;;;;;;;14.35;5.82;;;;;;;18.71;44.33;101706.22;4980179;28;20041;-62
2024/03/21 01:23:31;;;;;;;11.75;5.93;;;;;;;18.73;44.70;101699.66;4996431;28;20057;-62
2024/03/21 01:25:57;;;;;;;19.60;6.18;;;;;;;18.75;44.76;101703.06;4980247;28;20026;-62
2024/03/21 01:28:23;;;;;;;14.82;7.00;;;;;;;18.77;44.93;101700.16;4996365;28;20040;-62
2024/03/21 01:30:49;;;;;;;16.10;7.70;;;;;;;18.77;44.62;101703.72;4996198;28;20034;-62
2024/03/21 01:33:14;;;;;;;13.38;7.90;;;;;;;18.80;44.64;101711.56;4996236;28;20120;-62
2024/03/21 01:35:39;;;;;;;21.08;10.20;;;;;;;18.83;44.90;101711.25;4996012;28;20038;-62
2024/03/21 01:38:05;;;;;;;15.00;9.15;;;;;;;18.87;44.81;101701.75;4979965;28;20125;-62
2024/03/21 01:40:31;;;;;;;16.10;9.77;;;;;;;18.91;45.11;101707.72;4996225;28;20034;-62
2024/03/21 01:42:57;;;;;;;17.75;9.80;;;;;;;18.93;44.94;101706.53;4979952;28;20527;-62
2024/03/21 01:45:22;;;;;;;15.85;8.65;;;;;;;18.96;44.63;101703.50;4996282;28;20030;-62
2024/03/21 01:47:47;;;;;;;16.13;9.38;;;;;;;19.01;45.01;101713.88;5013858;28;20033;-62
2024/03/21 01:50:13;;;;;;;23.35;11.30;;;;;;;19.02;45.34;101721.84;4996721;28;20521;-62
2024/03/21 01:52:40;;;;;;;19.08;10.77;;;;;;;19.06;45.16;101728.69;4981466;28;20433;-62
2024/03/21 01:55:07;;;;;;;22.80;12.20;;;;;;;19.07;44.76;101719.50;4998165;28;20034;-63
2024/03/21 01:57:33;;;;;;;28.50;13.63;;;;;;;19.09;45.32;101722.06;4998451;28;20395;-62
2024/03/21 01:59:59;;;;;;;27.48;12.98;;;;;;;19.11;45.16;101718.19;4998578;28;20498;-62
2024/03/21 02:02:27;;;;;;;28.60;13.98;;;;;;;19.15;45.28;101719.53;4998934;28;20053;-64
2024/03/21 02:04:53;;;;;;;22.67;13.27;;;;;;;19.16;45.31;101713.09;5016535;28;20030;-67
2024/03/21 02:07:18;;;;;;;31.75;14.02;;;;;;;19.18;45.85;101713.78;4996592;28;20497;-62
2024/03/21 02:09:45;;;;;;;28.88;13.38;;;;;;;19.22;45.74;101716.19;4995104;28;20643;-62
2024/03/21 02:12:10;;;;;;;22.00;13.52;;;;;;;19.19;44.93;101712.78;5012189;28;20113;-62
2024/03/21 02:14:37;;;;;;;23.63;13.45;;;;;;;19.20;45.52;101708.19;4995502;28;20551;-62
2024/03/21 02:17:03;;;;;;;26.33;13.60;;;;;;;19.20;45.46;101713.63;4979472;28;20041;-63
2024/03/21 02:19:29;;;;;;;24.05;13.30;;;;;;;19.19;45.33;101720.94;4975826;28;20035;-62
2024/03/21 02:24:38;;;;;;;22.15;11.90;;;;;;;19.15;45.48;101719.53;4998097;28;20041;-62
2024/03/21 02:27:04;;;;;;;23.23;12.95;;;;;;;19.11;45.94;101707.31;4979241;28;20042;-62
2024/03/21 02:29:30;;;;;;;19.50;11.13;;;;;;;19.09;45.38;101717.50;4995219;28;20026;-62
2024/03/21 02:31:55;;;;;;;22.92;12.40;;;;;;;19.04;45.38;101717.09;5012936;28;20034;-62
2024/03/21 02:34:21;;;;;;;20.80;10.90;;;;;;;19.03;45.47;101715.44;4995372;28;20057;-61
2024/03/21 02:36:46;;;;;;;20.00;11.63;;;;;;;19.01;45.03;101703.84;5012871;28;20513;-63
2024/03/21 02:39:11;;;;;;;23.92;12.20;;;;;;;18.96;45.44;101700.78;4995336;28;20061;-62
2024/03/21 02:41:37;;;;;;;20.65;12.35;;;;;;;18.94;45.19;101702.81;5012980;28;20553;-62
2024/03/21 02:44:02;;;;;;;21.65;10.52;;;;;;;18.90;45.84;101696.00;4975504;28;20078;-65
2024/03/21 02:46:28;;;;;;;19.05;11.10;;;;;;;18.86;45.59;101710.91;4995255;28;20030;-62
2024/03/21 02:48:53;;;;;;;17.45;9.68;;;;;;;18.85;45.18;101714.63;4995500;28;20504;-63
2024/03/21 02:51:18;;;;;;;21.80;11.02;;;;;;;18.82;45.58;101720.38;4978984;28;20033;-62
2024/03/21 02:53:44;;;;;;;21.25;11.65;;;;;;;18.79;45.68;101720.69;5012662;28;20057;-62
2024/03/21 02:56:09;;;;;;;19.50;11.63;;;;;;;18.75;45.85;101716.63;4995575;28;20385;-62
2024/03/21 02:58:35;;;;;;;23.60;11.05;;;;;;;18.76;46.05;101720.19;5012594;28;20033;-62
2024/03/21 03:01:00;;;;;;;25.15;11.27;;;;;;;18.72;45.51;101711.50;4995136;28;20030;-62
2024/03/21 03:03:26;;;;;;;19.70;11.32;;;;;;;18.77;45.74;101733.59;4995069;28;20113;-62
2024/03/21 03:05:51;;;;;;;23.88;11.27;;;;;;;18.77;45.80;101733.59;5012693;28;20024;-62
2024/03/21 03:08:16;;;;;;;28.17;12.55;;;;;;;18.78;45.81;101729.88;5014023;28;20125;-61
2024/03/21 03:10:42;;;;;;;26.33;14.35;;;;;;;18.79;45.79;101726.13;4995254;28;20542;-61
2024/03/21 03:13:07;;;;;;;24.58;14.23;;;;;;;18.81;45.75;101728.72;5012511;28;20430;-62
2024/03/21 03:15:33;;;;;;;26.95;13.25;;;;;;;18.82;46.34;101733.97;4978775;28;20098;-62
2024/03/21 03:17:59;;;;;;;25.55;13.63;;;;;;;18.80;45.73;101732.41;5012816;28;20018;-62
2024/03/21 03:20:24;;;;;;;32.20;15.27;;;;;;;18.78;46.13;101729.88;4996512;28;20026;-62
2024/03/21 03:22:50;;;;;;;29.60;13.35;;;;;;;18.80;46.17;101744.13;4998836;28;20072;-61
2024/03/21 03:25:15;;;;;;;25.40;13.80;;;;;;;18.76;45.87;101741.91;4983735;28;20072;-61
2024/03/21 03:27:40;;;;;;;22.00;12.20;;;;;;;18.74;46.21;101761.06;5018022;28;20029;-62
2024/03/21 03:30:06;;;;;;;22.75;11.68;;;;;;;18.68;46.22;101764.41;5000146;28;20025;-67
2024/03/21 03:32:33;;;;;;;26.23;14.27;;;;;;;18.66;45.80;101763.72;4999615;28;20088;-62
2024/03/21 03:37:42;;;;;;;26.75;14.07;;;;;;;18.59;45.92;101762.66;5001524;28;20083;-62
2024/03/21 03:40:09;;;;;;;25.60;14.02;;;;;;;18.56;46.03;101769.22;4998698;28;20389;-62
2024/03/21 03:42:35;;;;;;;28.08;13.23;;;;;;;18.53;46.06;101766.88;4998723;28;20185;-62
2024/03/21 03:45:00;;;;;;;26.60;14.85;;;;;;;18.57;46.12;101764.66;4998248;28;20117;-62
2024/03/21 03:47:25;;;;;;;28.25;13.93;;;;;;;18.57;45.99;101770.09;4998115;28;20124;-62
2024/03/21 03:49:51;;;;;;;27.52;13.25;;;;;;;18.54;46.16;101764.97;5015448;28;20042;-62
2024/03/21 03:52:16;;;;;;;26.92;13.30;;;;;;;18.55;45.86;101766.69;4982209;28;20045;-62
2024/03/21 03:54:41;;;;;;;30.38;13.27;;;;;;;18.54;46.17;101765.84;4982007;28;20045;-62
2024/03/21 03:57:07;;;;;;;26.27;13.90;;;;;;;18.57;46.57;101772.81;4981835;28;20030;-62
2024/03/21 03:59:32;;;;;;;28.35;14.23;;;;;;;18.56;45.84;101774.66;4997906;28;20394;-62
2024/03/21 04:01:58;;;;;;;31.02;14.48;;;;;;;18.57;46.81;101786.38;4981871;28;20048;-62
2024/03/21 04:04:23;;;;;;;33.92;15.60;;;;;;;18.56;46.48;101792.81;4997997;28;20038;-62
2024/03/21 04:06:48;;;;;;;27.95;14.38;;;;;;;18.57;46.95;101786.38;5015467;28;20033;-62
2024/03/21 04:09:14;;;;;;;29.33;15.38;;;;;;;18.53;45.97;101787.72;5015602;28;20034;-62
2024/03/21 04:11:39;;;;;;;26.05;14.15;;;;;;;18.54;46.46;101801.09;5015472;28;20033;-61
2024/03/21 04:14:05;;;;;;;29.65;14.65;;;;;;;18.48;46.22;101798.19;4981778;28;20034;-62
2024/03/21 04:16:30;;;;;;;28.60;14.32;;;;;;;18.53;46.32;101820.28;4997781;28;20030;-62
2024/03/21 04:18:55;;;;;;;30.02;15.38;;;;;;;18.51;46.30;101830.41;4981660;28;20039;-62
2024/03/21 04:21:21;;;;;;;28.08;15.27;;;;;;;18.49;46.24;101825.16;4997509;28;20033;-62
2024/03/21 04:23:46;;;;;;;33.90;15.40;;;;;;;18.51;46.50;101824.97;4997505;28;20050;-62
2024/03/21 04:26:11;;;;;;;29.83;15.48;;;;;;;18.49;46.44;101830.59;4981424;28;20056;-61
2024/03/21 04:28:37;;;;;;;32.30;16.20;;;;;;;18.45;45.96;101841.88;4981855;28;20030;-61
2024/03/21 04:31:02;;;;;;;24.13;14.07;;;;;;;18.43;46.30;101849.31;4997504;28;20026;-61
2024/03/21 04:33:28;;;;;;;30.55;14.50;;;;;;;18.36;46.68;101848.22;4996692;28;20100;-61
2024/03/21 04:35:53;;;;;;;30.25;14.82;;;;;;;18.35;46.33;101855.50;4996998;28;20026;-62
2024/03/21 04:38:18;;;;;;;29.65;14.63;;;;;;;18.31;45.87;101856.84;5014954;28;20033;-61
2024/03/21 04:40:45;;;;;;;32.20;16.08;;;;;;;18.30;46.58;101859.69;4997200;28;20084;-62
2024/03/21 04:43:10;;;;;;;31.67;15.32;;;;;;;18.28;46.55;101851.72;5014854;28;20030;-61
2024/03/21 04:45:37;;;;;;;31.25;15.73;;;;;;;18.26;46.83;101844.72;5014855;28;20555;-61
2024/03/21 04:48:03;;;;;;;30.40;15.25;;;;;;;18.21;46.44;101845.19;4997487;28;20538;-61
2024/03/21 04:50:29;;;;;;;34.33;15.35;;;;;;;18.19;46.76;101849.06;4977383;28;20134;-61
2024/03/21 04:52:54;;;;;;;30.10;16.38;;;;;;;18.15;46.70;101845.81;4995076;28;20407;-61
2024/03/21 04:55:19;;;;;;;35.10;15.68;;;;;;;18.11;46.36;101848.97;4993255;28;20045;-61
2024/03/21 04:57:45;;;;;;;35.80;17.55;;;;;;;18.10;47.19;101863.53;4993713;28;20065;-61
2024/03/21 05:00:11;;;;;;;27.30;15.40;;;;;;;18.10;46.62;101866.25;4994838;28;20041;-61
2024/03/21 05:02:37;;;;;;;36.63;16.35;;;;;;;18.07;46.79;101869.25;4994808;28;20034;-62
2024/03/21 05:05:04;;;;;;;33.38;16.27;;;;;;;18.04;46.76;101879.41;4993430;28;20042;-61
2024/03/21 05:07:30;;;;;;;34.10;15.73;;;;;;;18.00;46.55;101883.44;4993319;28;20030;-61
2024/03/21 05:09:55;;;;;;;28.73;15.48;;;;;;;17.96;46.77;101882.03;4977432;28;20039;-61
2024/03/21 05:12:20;;;;;;;33.75;17.08;;;;;;;17.96;46.67;101892.03;4977248;28;20042;-61
2024/03/21 05:14:46;;;;;;;31.63;15.85;;;;;;;17.90;46.06;101890.75;4993307;28;20545;-61
2024/03/21 05:17:14;;;;;;;34.97;15.73;;;;;;;17.87;46.87;101901.91;4993355;28;20041;-62
2024/03/21 05:19:39;;;;;;;34.45;16.85;;;;;;;17.82;47.10;101915.06;4993522;28;20038;-61
2024/03/21 05:22:05;;;;;;;31.95;14.93;;;;;;;17.77;46.33;101906.53;4993482;28;20042;-63
2024/03/21 05:24:30;;;;;;;30.60;14.07;;;;;;;17.74;46.55;101916.81;4993086;28;20029;-62
2024/03/21 05:26:55;;;;;;;27.70;15.18;;;;;;;17.68;46.57;101912.84;4994359;28;20042;-63
2024/03/21 05:29:21;;;;;;;28.77;14.55;;;;;;;17.67;46.88;101908.41;4993129;28;20141;-63
2024/03/21 05:31:47;;;;;;;30.13;14.82;;;;;;;17.67;46.74;101915.72;4993046;28;20101;-63
2024/03/21 05:34:12;;;;;;;34.05;15.70;;;;;;;17.62;46.73;101917.97;4992964;28;20045;-63
2024/03/21 05:36:38;;;;;;;27.75;13.43;;;;;;;17.63;46.95;101925.97;4992844;28;20065;-63
2024/03/21 05:39:03;;;;;;;30.15;15.35;;;;;;;17.65;46.94;101928.53;4994291;28;20031;-63
2024/03/21 05:41:30;;;;;;;37.83;15.45;;;;;;;17.66;46.23;101935.66;4977108;28;20046;-63
2024/03/21 05:43:56;;;;;;;32.22;15.30;;;;;;;17.69;46.56;101936.25;4994073;28;20038;-61
2024/03/21 05:46:26;;;;;;;35.53;15.38;;;;;;;17.72;46.64;101946.78;4994594;28;20379;-61
2024/03/21 05:48:52;;;;;;;30.20;15.45;;;;;;;17.76;46.79;101942.75;4979152;28;20038;-61
2024/03/21 05:51:18;;;;;;;30.85;15.13;;;;;;;17.80;46.39;101936.06;5015650;28;20025;-62
2024/03/21 05:53:43;;;;;;;26.50;13.77;;;;;;;17.82;46.94;101931.31;4997858;28;20102;-62
2024/03/21 05:56:08;;;;;;;32.05;13.63;;;;;;;17.86;47.21;101942.72;5013985;28;20045;-63
2024/03/21 05:58:35;;;;;;;23.17;12.68;;;;;;;17.93;47.02;101954.69;5013612;28;20517;-62
2024/03/21 06:01:44;;;;;;;25.63;14.43;;;;;;;17.97;47.66;101954.25;4995736;28;20030;-61
2024/03/21 06:03:50;;;;;;;31.73;15.40;;;;;;;18.03;46.60;101947.38;5010243;28;20117;-62
2024/03/21 06:06:16;;;;;;;31.00;13.98;;;;;;;18.04;47.29;101947.19;4996254;28;20034;-61
2024/03/21 06:08:42;;;;;;;27.45;13.90;;;;;;;18.12;46.98;101959.19;5013324;28;20501;-62
2024/03/21 06:11:07;;;;;;;30.20;13.95;;;;;;;18.15;46.81;101965.13;4979343;28;20041;-62
2024/03/21 06:13:33;;;;;;;27.73;15.02;;;;;;;18.18;47.33;101955.84;4995615;28;20037;-62
2024/03/21 06:15:58;;;;;;;29.73;14.48;;;;;;;18.20;46.88;101954.69;4995643;28;20042;-62
2024/03/21 06:18:24;;;;;;;26.90;13.80;;;;;;;18.27;47.58;101968.50;4995790;28;20405;-62
2024/03/21 06:20:49;;;;;;;26.67;13.63;;;;;;;18.29;47.47;101963.75;5013221;28;20413;-62
2024/03/21 06:23:14;;;;;;;33.63;14.73;;;;;;;18.33;46.87;101973.31;4995608;28;20379;-62
2024/03/21 06:25:41;;;;;;;31.92;15.02;;;;;;;18.37;47.28;101980.16;4996082;28;20068;-62
2024/03/21 06:28:07;;;;;;;31.20;14.60;;;;;;;18.39;47.00;101981.72;4995768;28;20042;-62
2024/03/21 06:30:33;;;;;;;34.47;15.52;;;;;;;18.39;46.94;101975.44;4995441;28;20502;-62
2024/03/21 06:32:58;;;;;;;30.27;14.57;;;;;;;18.44;46.69;101992.09;4995475;28;20033;-62
2024/03/21 06:35:25;;;;;;;30.63;15.75;;;;;;;18.45;46.96;101989.22;5012997;28;20069;-62
2024/03/21 06:37:53;;;;;;;30.83;14.70;;;;;;;18.46;47.56;101990.09;4995482;28;20041;-62
2024/03/21 06:40:19;;;;;;;30.10;13.98;;;;;;;18.51;46.94;101999.50;4995428;28;20088;-63
2024/03/21 06:42:44;;;;;;;30.02;14.02;;;;;;;18.52;46.93;101992.22;5012889;28;20034;-62
2024/03/21 06:45:10;;;;;;;28.85;14.32;;;;;;;18.56;47.21;101996.38;4995457;28;20033;-61
2024/03/21 06:47:39;;;;;;;31.10;13.65;;;;;;;18.58;46.96;101999.78;4978981;28;20049;-61
2024/03/21 06:50:06;;;;;;;31.58;14.85;;;;;;;18.60;47.04;102000.47;4979131;28;20052;-61
2024/03/21 06:52:31;;;;;;;27.83;14.98;;;;;;;18.65;47.21;102003.56;4995341;28;20034;-62
2024/03/21 06:54:57;;;;;;;37.67;14.45;;;;;;;18.70;47.07;102016.69;4995801;28;20206;-61
2024/03/21 06:57:25;;;;;;;27.15;14.38;;;;;;;18.72;47.31;102012.81;5017047;28;20096;-62
2024/03/21 06:59:54;;;;;;;29.75;14.27;;;;;;;18.73;47.11;102022.69;4999832;28;20465;-61
2024/03/21 07:02:20;;;;;;;28.35;14.40;;;;;;;18.74;47.14;102021.66;4983104;28;20030;-61
2024/03/21 07:04:45;;;;;;;33.30;15.02;;;;;;;18.72;46.56;102025.53;5016672;28;20036;-62
2024/03/21 07:07:10;;;;;;;27.05;14.10;;;;;;;18.74;47.29;102039.81;5016507;28;20026;-61
2024/03/21 07:09:36;;;;;;;40.15;15.25;;;;;;;18.75;47.13;102045.09;4998909;28;20513;-62
2024/03/21 07:12:01;;;;;;;29.33;14.65;;;;;;;18.78;46.98;102043.94;4982617;28;20030;-62
2024/03/21 07:14:32;;;;;;;28.67;14.45;;;;;;;18.76;47.59;102046.78;4998741;28;20118;-62
2024/03/21 07:17:02;;;;;;;26.65;13.43;;;;;;;18.78;46.99;102052.94;4982991;28;20034;-61
2024/03/21 07:19:33;;;;;;;29.02;13.25;;;;;;;18.79;47.67;102048.38;5016364;28;20049;-61
2024/03/21 07:21:59;;;;;;;33.67;14.43;;;;;;;18.81;47.62;102065.34;4998259;28;20498;-62
2024/03/21 07:24:25;;;;;;;31.65;14.13;;;;;;;18.82;47.27;102062.47;5016158;28;20029;-62
2024/03/21 07:26:50;;;;;;;26.00;12.73;;;;;;;18.81;47.26;102065.34;4998954;28;20030;-62
2024/03/21 07:29:16;;;;;;;27.45;13.70;;;;;;;18.81;47.44;102066.22;4998401;28;20022;-62
2024/03/21 07:31:41;;;;;;;28.17;13.90;;;;;;;18.81;46.80;102071.66;4982208;28;20049;-61
2024/03/21 07:34:06;;;;;;;29.08;13.45;;;;;;;18.81;46.89;102071.66;4998237;28;20022;-62
2024/03/21 07:36:32;;;;;;;28.70;13.05;;;;;;;18.78;47.10;102077.38;5015969;28;20018;-61
2024/03/21 07:38:57;;;;;;;25.38;12.70;;;;;;;18.74;46.88;102075.97;5015903;28;20068;-63
2024/03/21 07:41:23;;;;;;;23.08;12.15;;;;;;;18.69;47.18;102072.84;4998534;28;20022;-61
2024/03/21 07:43:48;;;;;;;21.85;11.18;;;;;;;18.70;46.81;102087.28;4998673;28;20010;-63
2024/03/21 07:46:18;;;;;;;19.73;10.75;;;;;;;18.69;47.53;102089.13;4998484;28;20029;-64
2024/03/21 07:48:43;;;;;;;19.38;10.40;;;;;;;18.66;47.18;102089.44;4998793;28;20389;-63
2024/03/21 07:51:09;;;;;;;24.40;12.00;;;;;;;18.72;47.01;102104.25;4981646;28;20046;-63
2024/03/21 07:53:34;;;;;;;19.85;10.95;;;;;;;18.73;47.31;102112.28;5015654;28;20040;-63
2024/03/21 07:55:59;;;;;;;23.00;10.30;;;;;;;18.72;47.41;102115.97;4998147;28;20540;-63
2024/03/21 07:58:25;;;;;;;19.98;10.23;;;;;;;18.72;47.44;102121.41;5016227;28;20021;-63
2024/03/21 08:00:50;;;;;;;21.17;10.70;;;;;;;18.77;47.26;102126.38;5311768;22;20733;-63
2024/03/21 08:03:15;;;;;;;19.30;9.48;;;;;;;18.76;47.07;102122.81;5035510;28;20041;-63
2024/03/21 08:05:41;;;;;;;13.10;7.55;;;;;;;18.79;47.37;102116.25;5035492;28;20481;-63
2024/03/21 08:08:06;;;;;;;18.27;8.95;;;;;;;18.81;46.80;102130.50;5016592;28;20044;-61
2024/03/21 08:10:32;;;;;;;15.15;8.55;;;;;;;18.84;47.30;102136.50;5017836;28;20049;-63
2024/03/21 08:12:57;;;;;;;16.33;7.13;;;;;;;18.88;46.66;102143.31;5035894;28;20100;-63
2024/03/21 08:15:23;;;;;;;16.20;7.47;;;;;;;18.87;47.19;102141.59;5017936;28;20024;-62
2024/03/21 08:17:48;;;;;;;16.23;7.93;;;;;;;18.90;46.88;102146.75;5035538;28;20071;-63
2024/03/21 08:20:13;;;;;;;13.23;7.18;;;;;;;18.93;46.91;102143.72;5017205;28;20392;-63
2024/03/21 08:22:39;;;;;;;12.88;7.13;;;;;;;18.94;46.92;102148.16;5034961;28;20093;-63
2024/03/21 08:25:05;;;;;;;10.82;6.80;;;;;;;18.96;46.62;102148.84;5034855;28;20466;-63
2024/03/21 08:27:30;;;;;;;13.57;6.63;;;;;;;18.98;46.98;102157.69;5035162;28;20033;-63
2024/03/21 08:29:56;;;;;;;9.13;5.53;;;;;;;19.01;46.49;102162.84;5034745;28;20060;-63
2024/03/21 08:32:22;;;;;;;8.90;5.65;;;;;;;19.03;46.81;102179.84;5034647;28;20028;-63
2024/03/21 08:34:48;;;;;;;8.85;5.30;;;;;;;19.01;46.32;102175.59;5034482;28;20037;-63
2024/03/21 08:37:14;;;;;;;8.10;5.28;;;;;;;18.98;46.53;102171.28;5016886;28;20033;-62
2024/03/21 08:39:40;;;;;;;10.77;5.57;;;;;;;19.02;46.28;102175.41;5017096;28;20026;-63
2024/03/21 08:42:05;;;;;;;10.45;5.10;;;;;;;19.03;46.88;102179.84;5017072;28;20029;-63
2024/03/21 08:44:31;;;;;;;9.23;4.95;;;;;;;19.05;46.76;102172.41;5034676;28;20025;-62
2024/03/21 08:46:56;;;;;;;7.10;4.57;;;;;;;19.08;46.38;102172.09;5016752;28;20034;-64
2024/03/21 08:49:21;;;;;;;7.93;4.18;;;;;;;19.12;45.93;102170.78;5016840;28;20491;-63
2024/03/21 08:51:47;;;;;;;10.95;4.43;;;;;;;19.22;46.32;102176.16;5016580;28;20481;-63
2024/03/21 08:54:12;;;;;;;6.47;3.83;;;;;;;19.30;45.84;102172.66;5016548;28;20036;-63
2024/03/21 08:56:38;;;;;;;9.57;4.95;;;;;;;19.37;45.52;102182.81;5034375;28;20061;-62
2024/03/21 08:59:03;;;;;;;6.68;4.05;;;;;;;19.46;45.71;102191.91;5034225;28;20049;-63
2024/03/21 09:01:29;;;;;;;8.27;3.63;;;;;;;19.50;46.04;102187.88;5015812;28;20038;-63
2024/03/21 09:03:54;;;;;;;5.68;3.72;;;;;;;19.54;45.41;102197.44;5000151;28;20049;-63
2024/03/21 09:06:19;;;;;;;6.47;4.20;;;;;;;19.63;45.35;102199.22;5034048;28;20478;-63
2024/03/21 09:08:45;;;;;;;9.27;4.72;;;;;;;19.75;45.29;102198.00;4999923;28;20033;-63
2024/03/21 09:11:10;;;;;;;8.63;5.13;;;;;;;19.82;44.87;102188.19;5034007;28;20440;-62
2024/03/21 09:13:36;;;;;;;9.55;4.80;;;;;;;19.90;45.60;102196.44;4999862;28;20100;-63
2024/03/21 09:16:01;;;;;;;8.82;4.85;;;;;;;19.96;44.86;102192.25;4999853;28;20068;-63
2024/03/21 09:18:27;;;;;;;9.65;5.68;;;;;;;20.01;45.25;102190.75;5033741;28;20511;-63
2024/03/21 09:20:52;;;;;;;7.78;5.10;;;;;;;20.11;44.49;102198.81;4999877;28;20021;-63
2024/03/21 09:23:18;;;;;;;7.88;4.90;;;;;;;20.21;44.61;102205.03;5016414;28;20048;-63
2024/03/21 09:25:43;;;;;;;7.10;4.57;;;;;;;20.27;44.49;102199.84;5016189;28;20025;-62
2024/03/21 09:28:09;;;;;;;8.18;4.18;;;;;;;20.37;44.38;102205.19;5016209;28;20034;-63
2024/03/21 09:30:34;;;;;;;7.13;4.70;;;;;;;20.43;44.70;102210.00;5033993;28;20429;-63
2024/03/21 09:33:00;;;;;;;6.95;4.45;;;;;;;20.43;44.38;102210.00;4999363;28;20056;-62
2024/03/21 09:35:25;;;;;;;6.40;4.13;;;;;;;20.49;43.80;102213.97;5033492;28;20409;-62
2024/03/21 09:37:50;;;;;;;8.18;5.18;;;;;;;20.48;44.30;102217.69;5016461;28;20044;-62
2024/03/21 09:40:17;;;;;;;5.35;4.13;;;;;;;20.48;44.36;102223.13;5015803;28;20080;-62
2024/03/21 09:42:43;;;;;;;6.55;3.72;;;;;;;20.49;44.35;102220.22;5015805;28;20041;-62
2024/03/21 09:45:13;;;;;;;3.38;2.75;;;;;;;20.58;44.05;102229.31;4999405;28;20041;-62
2024/03/21 09:47:39;;;;;;;4.68;3.28;;;;;;;20.67;43.52;102229.22;5016271;28;20026;-62
2024/03/21 09:50:06;;;;;;;4.70;3.25;;;;;;;20.76;43.37;102228.25;5015842;28;20030;-63
2024/03/21 09:52:32;;;;;;;7.15;3.83;;;;;;;20.87;43.56;102229.84;4999632;28;20036;-62
2024/03/21 09:54:57;;;;;;;5.82;3.83;;;;;;;21.02;43.41;102239.09;5015999;28;20034;-62
2024/03/21 09:57:24;;;;;;;5.47;3.25;;;;;;;21.25;43.19;102245.72;5016373;28;20493;-63
2024/03/21 09:59:49;;;;;;;7.35;3.50;;;;;;;21.47;42.51;102234.22;5000381;28;20037;-63
2024/03/21 10:02:15;;;;;;;7.35;3.80;;;;;;;21.59;42.76;102242.09;5013180;28;20550;-63
2024/03/21 10:04:47;;;;;;;4.07;3.33;;;;;;;21.70;42.76;102222.69;5012304;28;20546;-62
2024/03/21 10:07:23;;;;;;;6.90;3.40;;;;;;;21.83;42.10;102226.63;5013489;28;20034;-62
2024/03/21 10:09:55;;;;;;;6.63;4.32;;;;;;;21.87;42.91;102214.41;5012262;28;20026;-63
2024/03/21 10:12:22;;;;;;;7.05;4.15;;;;;;;21.87;42.16;102219.84;5012193;28;20493;-62
2024/03/21 10:14:47;;;;;;;7.10;4.35;;;;;;;21.83;42.46;102223.06;5012030;28;20034;-63
2024/03/21 10:17:12;;;;;;;11.23;4.35;;;;;;;21.78;42.00;102226.28;5012433;28;20498;-63
2024/03/21 10:19:38;;;;;;;8.32;4.82;;;;;;;21.73;42.23;102227.81;5013355;28;20450;-62
2024/03/21 10:22:03;;;;;;;6.35;4.13;;;;;;;21.65;42.65;102228.66;5012101;28;20025;-63
2024/03/21 10:24:30;;;;;;;6.82;4.28;;;;;;;21.62;41.84;102237.16;5011930;28;20397;-62
2024/03/21 10:26:55;;;;;;;7.57;4.10;;;;;;;21.57;42.19;102234.09;5011983;28;20117;-62
2024/03/21 10:29:23;;;;;;;6.28;4.20;;;;;;;21.54;42.62;102226.25;4995085;28;20477;-62
2024/03/21 10:31:48;;;;;;;7.78;4.35;;;;;;;21.55;42.58;102236.13;5011620;28;20490;-62
2024/03/21 10:34:15;;;;;;;6.45;3.22;;;;;;;21.54;41.84;102237.16;5011685;28;20084;-63
2024/03/21 10:36:40;;;;;;;5.55;3.00;;;;;;;21.55;42.06;102246.19;5011744;28;20081;-63
2024/03/21 10:39:08;;;;;;;4.03;2.75;;;;;;;21.68;41.72;102254.75;5013016;28;20033;-62
2024/03/21 10:41:34;;;;;;;5.35;3.00;;;;;;;21.79;41.99;102265.34;5011801;28;20084;-62
2024/03/21 10:44:05;;;;;;;3.83;2.83;;;;;;;21.92;41.68;102271.19;5011712;28;20034;-62
2024/03/21 10:46:30;;;;;;;6.07;3.45;;;;;;;22.31;41.35;102277.72;5012859;28;20034;-63
2024/03/21 10:48:59;;;;;;;4.60;3.53;;;;;;;22.91;40.48;102282.81;4995187;28;20038;-63
2024/03/21 10:51:24;;;;;;;8.07;3.63;;;;;;;23.29;40.17;102268.34;5011799;28;20092;-62
2024/03/21 10:54:05;;;;;;;6.80;3.50;;;;;;;23.47;39.88;102276.34;5013120;28;20038;-63
2024/03/21 10:56:38;;;;;;;3.22;2.67;;;;;;;23.51;40.10;102266.72;4995863;28;20073;-63
2024/03/21 10:59:04;;;;;;;5.13;3.17;;;;;;;23.63;39.64;102270.78;5011773;28;20053;-62
2024/03/21 11:01:36;;;;;;;4.25;3.13;;;;;;;23.54;40.00;102278.16;5011491;28;20521;-63
2024/03/21 11:04:03;;;;;;;3.40;2.70;;;;;;;23.43;39.95;102286.78;5012894;28;20030;-62
2024/03/21 11:06:36;;;;;;;8.23;3.65;;;;;;;23.35;40.32;102284.03;4995810;28;20524;-63
2024/03/21 11:09:03;;;;;;;6.47;3.95;;;;;;;23.30;40.00;102275.53;5011805;28;20390;-64
2024/03/21 11:11:29;;;;;;;3.70;3.15;;;;;;;23.57;39.95;102279.69;5011550;28;20085;-62
2024/03/21 11:13:59;;;;;;;4.15;2.92;;;;;;;23.52;40.24;102285.72;5011985;28;20037;-63